sensor_id;sensor_type;location;lat;lon;timestamp;P1;durP1;ratioP1;P2;durP2;ratioP2
26820;SDS011;37186;51.394;5.454;2023-05-07T00:02:41;10.45;;;10.15;;
26820;SDS011;37186;51.394;5.454;2023-05-07T00:05:41;10.00;;;9.70;;
26820;SDS011;37186;51.394;5.454;2023-05-07T00:08:42;10.18;;;9.88;;
26820;SDS011;37186;51.394;5.454;2023-05-07T00:11:43;10.25;;;9.95;;
26820;SDS011;37186;51.394;5.454;2023-05-07T00:14:43;9.55;;;9.25;;
26820;SDS011;37186;51.394;5.454;2023-05-07T00:17:44;10.45;;;10.15;;
26820;SDS011;37186;51.394;5.454;2023-05-07T00:20:44;10.35;;;10.05;;
26820;SDS011;37186;51.394;5.454;2023-05-07T00:23:45;9.82;;;9.52;;
26820;SDS011;37186;51.394;5.454;2023-05-07T00:26:45;9.82;;;9.52;;
26820;SDS011;37186;51.394;5.454;2023-05-07T00:29:46;9.85;;;9.55;;
26820;SDS011;37186;51.394;5.454;2023-05-07T00:32:46;9.93;;;9.63;;
26820;SDS011;37186;51.394;5.454;2023-05-07T00:35:48;10.10;;;9.80;;
26820;SDS011;37186;51.394;5.454;2023-05-07T00:38:49;9.88;;;9.57;;
26820;SDS011;37186;51.394;5.454;2023-05-07T00:41:50;10.10;;;9.80;;
26820;SDS011;37186;51.394;5.454;2023-05-07T00:44:51;10.18;;;9.88;;
26820;SDS011;37186;51.394;5.454;2023-05-07T00:47:53;10.07;;;9.77;;
26820;SDS011;37186;51.394;5.454;2023-05-07T00:50:55;9.88;;;9.57;;
26820;SDS011;37186;51.394;5.454;2023-05-07T00:53:56;9.88;;;9.57;;
26820;SDS011;37186;51.394;5.454;2023-05-07T00:56:57;10.20;;;9.90;;
26820;SDS011;37186;51.394;5.454;2023-05-07T00:59:57;9.77;;;9.48;;
26820;SDS011;37186;51.394;5.454;2023-05-07T01:02:58;10.20;;;9.90;;
26820;SDS011;37186;51.394;5.454;2023-05-07T01:05:59;10.60;;;10.30;;
26820;SDS011;37186;51.394;5.454;2023-05-07T01:09:01;10.38;;;10.07;;
26820;SDS011;37186;51.394;5.454;2023-05-07T01:12:03;10.25;;;9.95;;
26820;SDS011;37186;51.394;5.454;2023-05-07T01:15:04;10.27;;;9.98;;
26820;SDS011;37186;51.394;5.454;2023-05-07T01:18:07;10.13;;;9.82;;
26820;SDS011;37186;51.394;5.454;2023-05-07T01:21:08;10.48;;;10.18;;
26820;SDS011;37186;51.394;5.454;2023-05-07T01:24:12;9.77;;;9.48;;
26820;SDS011;37186;51.394;5.454;2023-05-07T01:27:12;10.77;;;10.48;;
26820;SDS011;37186;51.394;5.454;2023-05-07T01:30:13;10.18;;;9.88;;
26820;SDS011;37186;51.394;5.454;2023-05-07T01:33:14;10.02;;;9.73;;
26820;SDS011;37186;51.394;5.454;2023-05-07T01:36:18;10.15;;;9.85;;
26820;SDS011;37186;51.394;5.454;2023-05-07T01:39:27;10.60;;;10.30;;
26820;SDS011;37186;51.394;5.454;2023-05-07T01:42:29;9.95;;;9.65;;
26820;SDS011;37186;51.394;5.454;2023-05-07T01:45:30;10.27;;;9.98;;
26820;SDS011;37186;51.394;5.454;2023-05-07T01:48:31;9.65;;;9.35;;
26820;SDS011;37186;51.394;5.454;2023-05-07T01:51:32;9.68;;;9.38;;
26820;SDS011;37186;51.394;5.454;2023-05-07T01:54:34;10.02;;;9.73;;
26820;SDS011;37186;51.394;5.454;2023-05-07T01:57:34;10.38;;;10.07;;
26820;SDS011;37186;51.394;5.454;2023-05-07T02:00:35;9.88;;;9.57;;
26820;SDS011;37186;51.394;5.454;2023-05-07T02:03:36;10.05;;;9.75;;
26820;SDS011;37186;51.394;5.454;2023-05-07T02:06:36;10.25;;;9.95;;
26820;SDS011;37186;51.394;5.454;2023-05-07T02:09:37;10.50;;;10.20;;
26820;SDS011;37186;51.394;5.454;2023-05-07T02:12:38;10.13;;;9.82;;
26820;SDS011;37186;51.394;5.454;2023-05-07T02:15:38;10.00;;;9.70;;
26820;SDS011;37186;51.394;5.454;2023-05-07T02:18:39;10.43;;;10.13;;
26820;SDS011;37186;51.394;5.454;2023-05-07T02:21:39;10.02;;;9.73;;
26820;SDS011;37186;51.394;5.454;2023-05-07T02:24:40;10.77;;;10.48;;
26820;SDS011;37186;51.394;5.454;2023-05-07T02:27:41;11.02;;;10.73;;
26820;SDS011;37186;51.394;5.454;2023-05-07T02:30:41;10.48;;;10.18;;
26820;SDS011;37186;51.394;5.454;2023-05-07T02:33:42;10.45;;;10.15;;
26820;SDS011;37186;51.394;5.454;2023-05-07T02:36:42;10.65;;;10.35;;
26820;SDS011;37186;51.394;5.454;2023-05-07T02:39:43;10.77;;;10.48;;
26820;SDS011;37186;51.394;5.454;2023-05-07T02:42:43;10.90;;;10.60;;
26820;SDS011;37186;51.394;5.454;2023-05-07T02:45:44;10.35;;;10.05;;
26820;SDS011;37186;51.394;5.454;2023-05-07T02:48:44;11.18;;;10.88;;
26820;SDS011;37186;51.394;5.454;2023-05-07T02:51:45;10.73;;;10.43;;
26820;SDS011;37186;51.394;5.454;2023-05-07T02:54:45;10.35;;;10.05;;
26820;SDS011;37186;51.394;5.454;2023-05-07T02:57:46;11.30;;;11.00;;
26820;SDS011;37186;51.394;5.454;2023-05-07T03:00:46;9.93;;;9.63;;
26820;SDS011;37186;51.394;5.454;2023-05-07T03:03:47;11.25;;;10.95;;
26820;SDS011;37186;51.394;5.454;2023-05-07T03:06:48;11.20;;;10.90;;
26820;SDS011;37186;51.394;5.454;2023-05-07T03:09:48;10.60;;;10.30;;
26820;SDS011;37186;51.394;5.454;2023-05-07T03:12:49;11.07;;;10.77;;
26820;SDS011;37186;51.394;5.454;2023-05-07T03:15:49;10.85;;;10.55;;
26820;SDS011;37186;51.394;5.454;2023-05-07T03:18:50;10.23;;;9.93;;
26820;SDS011;37186;51.394;5.454;2023-05-07T03:21:50;10.48;;;10.18;;
26820;SDS011;37186;51.394;5.454;2023-05-07T03:24:51;10.63;;;10.32;;
26820;SDS011;37186;51.394;5.454;2023-05-07T03:27:51;10.38;;;10.07;;
26820;SDS011;37186;51.394;5.454;2023-05-07T03:30:52;10.18;;;9.88;;
26820;SDS011;37186;51.394;5.454;2023-05-07T03:33:53;10.13;;;9.82;;
26820;SDS011;37186;51.394;5.454;2023-05-07T03:36:55;10.15;;;9.85;;
26820;SDS011;37186;51.394;5.454;2023-05-07T03:39:56;9.77;;;9.48;;
26820;SDS011;37186;51.394;5.454;2023-05-07T03:42:56;9.80;;;9.50;;
26820;SDS011;37186;51.394;5.454;2023-05-07T03:45:57;9.52;;;9.23;;
26820;SDS011;37186;51.394;5.454;2023-05-07T03:48:58;8.90;;;8.65;;
26820;SDS011;37186;51.394;5.454;2023-05-07T03:51:58;9.13;;;8.82;;
26820;SDS011;37186;51.394;5.454;2023-05-07T03:54:59;9.23;;;8.93;;
26820;SDS011;37186;51.394;5.454;2023-05-07T03:58:00;9.07;;;8.80;;
26820;SDS011;37186;51.394;5.454;2023-05-07T04:01:01;8.82;;;8.57;;
26820;SDS011;37186;51.394;5.454;2023-05-07T04:04:02;8.73;;;8.52;;
26820;SDS011;37186;51.394;5.454;2023-05-07T04:07:03;8.30;;;8.10;;
26820;SDS011;37186;51.394;5.454;2023-05-07T04:10:04;8.80;;;8.55;;
26820;SDS011;37186;51.394;5.454;2023-05-07T04:13:05;8.13;;;7.93;;
26820;SDS011;37186;51.394;5.454;2023-05-07T04:16:05;8.20;;;8.00;;
26820;SDS011;37186;51.394;5.454;2023-05-07T04:19:06;8.65;;;8.45;;
26820;SDS011;37186;51.394;5.454;2023-05-07T04:22:06;8.27;;;8.07;;
26820;SDS011;37186;51.394;5.454;2023-05-07T04:25:09;8.40;;;8.20;;
26820;SDS011;37186;51.394;5.454;2023-05-07T04:28:10;7.88;;;7.68;;
26820;SDS011;37186;51.394;5.454;2023-05-07T04:31:11;8.02;;;7.82;;
26820;SDS011;37186;51.394;5.454;2023-05-07T04:34:11;6.65;;;6.45;;
26820;SDS011;37186;51.394;5.454;2023-05-07T04:37:12;6.50;;;6.30;;
26820;SDS011;37186;51.394;5.454;2023-05-07T04:40:13;6.60;;;6.40;;
26820;SDS011;37186;51.394;5.454;2023-05-07T04:43:14;6.72;;;6.53;;
26820;SDS011;37186;51.394;5.454;2023-05-07T04:46:14;6.55;;;6.35;;
26820;SDS011;37186;51.394;5.454;2023-05-07T04:49:15;6.88;;;6.68;;
26820;SDS011;37186;51.394;5.454;2023-05-07T04:52:15;6.78;;;6.57;;
26820;SDS011;37186;51.394;5.454;2023-05-07T04:55:16;6.80;;;6.60;;
26820;SDS011;37186;51.394;5.454;2023-05-07T04:58:17;7.25;;;7.05;;
26820;SDS011;37186;51.394;5.454;2023-05-07T05:01:17;6.95;;;6.75;;
26820;SDS011;37186;51.394;5.454;2023-05-07T05:04:18;7.18;;;6.97;;
26820;SDS011;37186;51.394;5.454;2023-05-07T05:07:18;6.97;;;6.78;;
26820;SDS011;37186;51.394;5.454;2023-05-07T05:10:20;6.60;;;6.40;;
26820;SDS011;37186;51.394;5.454;2023-05-07T05:13:22;7.80;;;7.60;;
26820;SDS011;37186;51.394;5.454;2023-05-07T05:16:22;7.57;;;7.38;;
26820;SDS011;37186;51.394;5.454;2023-05-07T05:19:23;7.40;;;7.20;;
26820;SDS011;37186;51.394;5.454;2023-05-07T05:22:23;7.15;;;6.95;;
26820;SDS011;37186;51.394;5.454;2023-05-07T05:25:25;7.43;;;7.22;;
26820;SDS011;37186;51.394;5.454;2023-05-07T05:28:26;7.45;;;7.25;;
26820;SDS011;37186;51.394;5.454;2023-05-07T05:31:27;7.70;;;7.50;;
26820;SDS011;37186;51.394;5.454;2023-05-07T05:34:28;7.53;;;7.32;;
26820;SDS011;37186;51.394;5.454;2023-05-07T05:37:28;7.35;;;7.15;;
26820;SDS011;37186;51.394;5.454;2023-05-07T05:40:30;7.10;;;6.90;;
26820;SDS011;37186;51.394;5.454;2023-05-07T05:43:30;7.03;;;6.82;;
26820;SDS011;37186;51.394;5.454;2023-05-07T05:46:31;7.18;;;6.97;;
26820;SDS011;37186;51.394;5.454;2023-05-07T05:49:31;6.75;;;6.55;;
26820;SDS011;37186;51.394;5.454;2023-05-07T05:52:32;6.43;;;6.22;;
26820;SDS011;37186;51.394;5.454;2023-05-07T05:55:33;6.80;;;6.60;;
26820;SDS011;37186;51.394;5.454;2023-05-07T05:58:33;6.25;;;6.05;;
26820;SDS011;37186;51.394;5.454;2023-05-07T06:01:34;6.45;;;6.25;;
26820;SDS011;37186;51.394;5.454;2023-05-07T06:04:35;6.45;;;6.25;;
26820;SDS011;37186;51.394;5.454;2023-05-07T06:07:35;5.80;;;5.63;;
26820;SDS011;37186;51.394;5.454;2023-05-07T06:10:36;5.53;;;5.43;;
26820;SDS011;37186;51.394;5.454;2023-05-07T06:13:37;5.53;;;5.43;;
26820;SDS011;37186;51.394;5.454;2023-05-07T06:16:38;6.10;;;5.90;;
26820;SDS011;37186;51.394;5.454;2023-05-07T06:19:38;5.25;;;5.15;;
26820;SDS011;37186;51.394;5.454;2023-05-07T06:22:39;5.35;;;5.25;;
26820;SDS011;37186;51.394;5.454;2023-05-07T06:25:39;5.38;;;5.28;;
26820;SDS011;37186;51.394;5.454;2023-05-07T06:28:40;5.40;;;5.30;;
26820;SDS011;37186;51.394;5.454;2023-05-07T06:31:40;5.50;;;5.40;;
26820;SDS011;37186;51.394;5.454;2023-05-07T06:34:41;5.30;;;5.20;;
26820;SDS011;37186;51.394;5.454;2023-05-07T06:37:41;5.00;;;4.90;;
26820;SDS011;37186;51.394;5.454;2023-05-07T06:40:42;5.03;;;4.93;;
26820;SDS011;37186;51.394;5.454;2023-05-07T06:43:43;5.07;;;4.97;;
26820;SDS011;37186;51.394;5.454;2023-05-07T06:46:43;4.53;;;4.43;;
26820;SDS011;37186;51.394;5.454;2023-05-07T06:49:45;4.45;;;4.35;;
26820;SDS011;37186;51.394;5.454;2023-05-07T06:52:45;4.40;;;4.30;;
26820;SDS011;37186;51.394;5.454;2023-05-07T06:55:46;4.70;;;4.60;;
26820;SDS011;37186;51.394;5.454;2023-05-07T06:58:46;4.60;;;4.50;;
26820;SDS011;37186;51.394;5.454;2023-05-07T07:01:47;4.63;;;4.53;;
26820;SDS011;37186;51.394;5.454;2023-05-07T07:04:47;4.65;;;4.55;;
26820;SDS011;37186;51.394;5.454;2023-05-07T07:07:48;4.55;;;4.45;;
26820;SDS011;37186;51.394;5.454;2023-05-07T07:10:54;4.97;;;4.88;;
26820;SDS011;37186;51.394;5.454;2023-05-07T07:13:55;5.13;;;5.03;;
26820;SDS011;37186;51.394;5.454;2023-05-07T07:16:56;4.90;;;4.80;;
26820;SDS011;37186;51.394;5.454;2023-05-07T07:19:57;4.95;;;4.85;;
26820;SDS011;37186;51.394;5.454;2023-05-07T07:22:57;4.70;;;4.60;;
26820;SDS011;37186;51.394;5.454;2023-05-07T07:25:58;4.65;;;4.55;;
26820;SDS011;37186;51.394;5.454;2023-05-07T07:28:58;4.80;;;4.70;;
26820;SDS011;37186;51.394;5.454;2023-05-07T07:31:59;4.60;;;4.50;;
26820;SDS011;37186;51.394;5.454;2023-05-07T07:34:59;4.30;;;4.20;;
26820;SDS011;37186;51.394;5.454;2023-05-07T07:38:00;4.47;;;4.38;;
26820;SDS011;37186;51.394;5.454;2023-05-07T07:41:01;4.00;;;3.90;;
26820;SDS011;37186;51.394;5.454;2023-05-07T07:44:03;4.28;;;4.18;;
26820;SDS011;37186;51.394;5.454;2023-05-07T07:47:06;4.35;;;4.25;;
26820;SDS011;37186;51.394;5.454;2023-05-07T07:50:07;4.40;;;4.30;;
26820;SDS011;37186;51.394;5.454;2023-05-07T07:53:08;4.13;;;4.03;;
26820;SDS011;37186;51.394;5.454;2023-05-07T07:56:09;4.40;;;4.30;;
26820;SDS011;37186;51.394;5.454;2023-05-07T07:59:09;4.40;;;4.30;;
26820;SDS011;37186;51.394;5.454;2023-05-07T08:02:10;4.35;;;4.25;;
26820;SDS011;37186;51.394;5.454;2023-05-07T08:05:11;4.00;;;3.90;;
26820;SDS011;37186;51.394;5.454;2023-05-07T08:08:11;4.05;;;3.95;;
26820;SDS011;37186;51.394;5.454;2023-05-07T08:11:12;4.15;;;4.05;;
26820;SDS011;37186;51.394;5.454;2023-05-07T08:14:12;4.40;;;4.30;;
26820;SDS011;37186;51.394;5.454;2023-05-07T08:17:13;4.07;;;3.97;;
26820;SDS011;37186;51.394;5.454;2023-05-07T08:20:15;3.90;;;3.80;;
26820;SDS011;37186;51.394;5.454;2023-05-07T08:23:16;3.88;;;3.78;;
26820;SDS011;37186;51.394;5.454;2023-05-07T08:26:16;3.83;;;3.72;;
26820;SDS011;37186;51.394;5.454;2023-05-07T08:29:17;3.72;;;3.63;;
26820;SDS011;37186;51.394;5.454;2023-05-07T08:32:17;4.03;;;3.92;;
26820;SDS011;37186;51.394;5.454;2023-05-07T08:35:18;4.60;;;4.50;;
26820;SDS011;37186;51.394;5.454;2023-05-07T08:38:19;4.00;;;3.90;;
26820;SDS011;37186;51.394;5.454;2023-05-07T08:41:20;4.10;;;4.00;;
26820;SDS011;37186;51.394;5.454;2023-05-07T08:44:20;4.50;;;4.40;;
26820;SDS011;37186;51.394;5.454;2023-05-07T08:47:25;4.03;;;3.92;;
26820;SDS011;37186;51.394;5.454;2023-05-07T08:50:29;4.35;;;4.25;;
26820;SDS011;37186;51.394;5.454;2023-05-07T08:53:30;4.22;;;4.13;;
26820;SDS011;37186;51.394;5.454;2023-05-07T08:56:31;4.25;;;4.15;;
26820;SDS011;37186;51.394;5.454;2023-05-07T08:59:31;4.28;;;4.18;;
26820;SDS011;37186;51.394;5.454;2023-05-07T09:02:32;4.38;;;4.28;;
26820;SDS011;37186;51.394;5.454;2023-05-07T09:05:34;4.63;;;4.53;;
26820;SDS011;37186;51.394;5.454;2023-05-07T09:08:35;4.70;;;4.60;;
26820;SDS011;37186;51.394;5.454;2023-05-07T09:11:36;4.65;;;4.55;;
26820;SDS011;37186;51.394;5.454;2023-05-07T09:14:37;4.90;;;4.80;;
26820;SDS011;37186;51.394;5.454;2023-05-07T09:17:39;5.35;;;5.25;;
26820;SDS011;37186;51.394;5.454;2023-05-07T09:20:41;4.60;;;4.50;;
26820;SDS011;37186;51.394;5.454;2023-05-07T09:23:41;5.18;;;5.07;;
26820;SDS011;37186;51.394;5.454;2023-05-07T09:26:42;5.43;;;5.32;;
26820;SDS011;37186;51.394;5.454;2023-05-07T09:29:43;5.75;;;5.60;;
26820;SDS011;37186;51.394;5.454;2023-05-07T09:32:44;5.68;;;5.55;;
26820;SDS011;37186;51.394;5.454;2023-05-07T09:35:44;6.18;;;5.97;;
26820;SDS011;37186;51.394;5.454;2023-05-07T09:38:45;6.18;;;5.97;;
26820;SDS011;37186;51.394;5.454;2023-05-07T09:41:46;5.97;;;5.80;;
26820;SDS011;37186;51.394;5.454;2023-05-07T09:44:47;6.70;;;6.50;;
26820;SDS011;37186;51.394;5.454;2023-05-07T09:47:48;6.20;;;6.00;;
26820;SDS011;37186;51.394;5.454;2023-05-07T09:50:49;7.38;;;7.18;;
26820;SDS011;37186;51.394;5.454;2023-05-07T09:53:59;7.90;;;7.70;;
26820;SDS011;37186;51.394;5.454;2023-05-07T09:57:03;7.28;;;7.07;;
26820;SDS011;37186;51.394;5.454;2023-05-07T10:00:05;7.68;;;7.47;;
26820;SDS011;37186;51.394;5.454;2023-05-07T10:03:08;8.43;;;8.23;;
26820;SDS011;37186;51.394;5.454;2023-05-07T10:06:10;8.27;;;8.07;;
26820;SDS011;37186;51.394;5.454;2023-05-07T10:09:12;8.88;;;8.60;;
26820;SDS011;37186;51.394;5.454;2023-05-07T10:12:15;8.63;;;8.43;;
26820;SDS011;37186;51.394;5.454;2023-05-07T10:15:17;9.20;;;8.90;;
26820;SDS011;37186;51.394;5.454;2023-05-07T10:18:18;9.27;;;8.98;;
26820;SDS011;37186;51.394;5.454;2023-05-07T10:21:23;8.45;;;8.25;;
26820;SDS011;37186;51.394;5.454;2023-05-07T10:24:30;8.38;;;8.18;;
26820;SDS011;37186;51.394;5.454;2023-05-07T10:27:34;10.20;;;9.90;;
26820;SDS011;37186;51.394;5.454;2023-05-07T10:33:48;10.15;;;9.85;;
26820;SDS011;37186;51.394;5.454;2023-05-07T10:36:52;9.20;;;8.90;;
26820;SDS011;37186;51.394;5.454;2023-05-07T10:39:55;9.43;;;9.13;;
26820;SDS011;37186;51.394;5.454;2023-05-07T10:42:57;8.88;;;8.60;;
26820;SDS011;37186;51.394;5.454;2023-05-07T10:46:13;10.45;;;10.15;;
26820;SDS011;37186;51.394;5.454;2023-05-07T10:49:14;10.50;;;10.20;;
26820;SDS011;37186;51.394;5.454;2023-05-07T10:52:16;11.05;;;10.75;;
26820;SDS011;37186;51.394;5.454;2023-05-07T10:55:19;11.25;;;10.95;;
26820;SDS011;37186;51.394;5.454;2023-05-07T11:08:23;11.68;;;11.35;;
26820;SDS011;37186;51.394;5.454;2023-05-07T11:11:43;11.88;;;11.48;;
26820;SDS011;37186;51.394;5.454;2023-05-07T11:14:47;11.90;;;11.50;;
26820;SDS011;37186;51.394;5.454;2023-05-07T11:17:56;12.52;;;12.13;;
26820;SDS011;37186;51.394;5.454;2023-05-07T11:20:58;12.38;;;11.98;;
26820;SDS011;37186;51.394;5.454;2023-05-07T11:23:59;10.95;;;10.65;;
26820;SDS011;37186;51.394;5.454;2023-05-07T11:27:01;11.02;;;10.73;;
26820;SDS011;37186;51.394;5.454;2023-05-07T11:30:01;11.15;;;10.85;;
26820;SDS011;37186;51.394;5.454;2023-05-07T11:33:02;11.07;;;10.77;;
26820;SDS011;37186;51.394;5.454;2023-05-07T11:36:04;12.23;;;11.82;;
26820;SDS011;37186;51.394;5.454;2023-05-07T11:39:05;12.23;;;11.82;;
26820;SDS011;37186;51.394;5.454;2023-05-07T11:42:06;12.68;;;12.27;;
26820;SDS011;37186;51.394;5.454;2023-05-07T11:45:08;12.52;;;12.13;;
26820;SDS011;37186;51.394;5.454;2023-05-07T11:48:09;12.18;;;11.77;;
26820;SDS011;37186;51.394;5.454;2023-05-07T11:51:09;12.30;;;11.90;;
26820;SDS011;37186;51.394;5.454;2023-05-07T11:54:12;13.48;;;13.07;;
26820;SDS011;37186;51.394;5.454;2023-05-07T11:57:15;14.00;;;13.60;;
26820;SDS011;37186;51.394;5.454;2023-05-07T12:00:16;14.18;;;13.75;;
26820;SDS011;37186;51.394;5.454;2023-05-07T12:03:17;14.07;;;13.65;;
26820;SDS011;37186;51.394;5.454;2023-05-07T12:06:18;13.93;;;13.52;;
26820;SDS011;37186;51.394;5.454;2023-05-07T12:09:18;14.50;;;14.05;;
26820;SDS011;37186;51.394;5.454;2023-05-07T12:12:19;13.68;;;13.27;;
26820;SDS011;37186;51.394;5.454;2023-05-07T12:15:22;13.98;;;13.57;;
26820;SDS011;37186;51.394;5.454;2023-05-07T12:18:23;13.98;;;13.57;;
26820;SDS011;37186;51.394;5.454;2023-05-07T12:21:24;15.45;;;14.95;;
26820;SDS011;37186;51.394;5.454;2023-05-07T12:24:25;15.35;;;14.85;;
26820;SDS011;37186;51.394;5.454;2023-05-07T12:27:25;16.20;;;15.70;;
26820;SDS011;37186;51.394;5.454;2023-05-07T12:30:26;14.95;;;14.48;;
26820;SDS011;37186;51.394;5.454;2023-05-07T12:33:27;14.68;;;14.23;;
26820;SDS011;37186;51.394;5.454;2023-05-07T12:36:36;13.80;;;13.40;;
26820;SDS011;37186;51.394;5.454;2023-05-07T12:39:37;15.13;;;14.65;;
26820;SDS011;37186;51.394;5.454;2023-05-07T12:42:39;12.93;;;12.52;;
26820;SDS011;37186;51.394;5.454;2023-05-07T12:45:40;13.23;;;12.82;;
26820;SDS011;37186;51.394;5.454;2023-05-07T12:48:44;11.77;;;11.43;;
26820;SDS011;37186;51.394;5.454;2023-05-07T12:51:48;12.18;;;11.77;;
26820;SDS011;37186;51.394;5.454;2023-05-07T12:54:49;14.35;;;13.95;;
26820;SDS011;37186;51.394;5.454;2023-05-07T12:57:50;13.13;;;12.73;;
26820;SDS011;37186;51.394;5.454;2023-05-07T13:00:51;13.77;;;13.38;;
26820;SDS011;37186;51.394;5.454;2023-05-07T13:03:52;14.35;;;13.95;;
26820;SDS011;37186;51.394;5.454;2023-05-07T13:06:52;12.48;;;12.07;;
26820;SDS011;37186;51.394;5.454;2023-05-07T13:09:53;11.10;;;10.80;;
26820;SDS011;37186;51.394;5.454;2023-05-07T13:12:53;9.65;;;9.35;;
26820;SDS011;37186;51.394;5.454;2023-05-07T13:15:54;10.68;;;10.38;;
26820;SDS011;37186;51.394;5.454;2023-05-07T13:18:54;9.75;;;9.45;;
26820;SDS011;37186;51.394;5.454;2023-05-07T13:21:55;9.70;;;9.40;;
26820;SDS011;37186;51.394;5.454;2023-05-07T13:24:55;9.48;;;9.18;;
26820;SDS011;37186;51.394;5.454;2023-05-07T13:27:56;9.45;;;9.15;;
26820;SDS011;37186;51.394;5.454;2023-05-07T13:30:57;8.32;;;8.13;;
26820;SDS011;37186;51.394;5.454;2023-05-07T13:33:58;9.18;;;8.88;;
26820;SDS011;37186;51.394;5.454;2023-05-07T13:36:58;8.73;;;8.52;;
26820;SDS011;37186;51.394;5.454;2023-05-07T13:39:59;8.85;;;8.57;;
26820;SDS011;37186;51.394;5.454;2023-05-07T13:42:59;8.43;;;8.23;;
26820;SDS011;37186;51.394;5.454;2023-05-07T13:46:02;8.57;;;8.38;;
26820;SDS011;37186;51.394;5.454;2023-05-07T13:49:02;8.30;;;8.10;;
26820;SDS011;37186;51.394;5.454;2023-05-07T13:52:03;7.63;;;7.43;;
26820;SDS011;37186;51.394;5.454;2023-05-07T13:55:04;7.53;;;7.32;;
26820;SDS011;37186;51.394;5.454;2023-05-07T13:58:05;6.95;;;6.75;;
26820;SDS011;37186;51.394;5.454;2023-05-07T14:01:05;7.53;;;7.32;;
26820;SDS011;37186;51.394;5.454;2023-05-07T14:04:06;7.43;;;7.22;;
26820;SDS011;37186;51.394;5.454;2023-05-07T14:07:07;7.45;;;7.25;;
26820;SDS011;37186;51.394;5.454;2023-05-07T14:10:08;7.50;;;7.30;;
26820;SDS011;37186;51.394;5.454;2023-05-07T14:13:09;7.35;;;7.15;;
26820;SDS011;37186;51.394;5.454;2023-05-07T14:16:10;7.90;;;7.70;;
26820;SDS011;37186;51.394;5.454;2023-05-07T14:19:11;7.40;;;7.20;;
26820;SDS011;37186;51.394;5.454;2023-05-07T14:22:13;8.13;;;7.93;;
26820;SDS011;37186;51.394;5.454;2023-05-07T14:25:14;8.18;;;7.97;;
26820;SDS011;37186;51.394;5.454;2023-05-07T14:28:15;8.43;;;8.23;;
26820;SDS011;37186;51.394;5.454;2023-05-07T14:31:16;8.38;;;8.18;;
26820;SDS011;37186;51.394;5.454;2023-05-07T14:34:16;8.10;;;7.90;;
26820;SDS011;37186;51.394;5.454;2023-05-07T14:37:17;8.02;;;7.82;;
26820;SDS011;37186;51.394;5.454;2023-05-07T14:40:19;8.27;;;8.07;;
26820;SDS011;37186;51.394;5.454;2023-05-07T14:43:20;8.32;;;8.13;;
26820;SDS011;37186;51.394;5.454;2023-05-07T14:46:20;8.95;;;8.68;;
26820;SDS011;37186;51.394;5.454;2023-05-07T14:49:21;7.72;;;7.53;;
26820;SDS011;37186;51.394;5.454;2023-05-07T14:52:22;7.35;;;7.15;;
26820;SDS011;37186;51.394;5.454;2023-05-07T14:55:22;7.00;;;6.80;;
26820;SDS011;37186;51.394;5.454;2023-05-07T14:58:23;7.15;;;6.95;;
26820;SDS011;37186;51.394;5.454;2023-05-07T15:01:24;7.50;;;7.30;;
26820;SDS011;37186;51.394;5.454;2023-05-07T15:04:26;7.25;;;7.05;;
26820;SDS011;37186;51.394;5.454;2023-05-07T15:07:27;6.72;;;6.53;;
26820;SDS011;37186;51.394;5.454;2023-05-07T15:10:28;7.18;;;6.97;;
26820;SDS011;37186;51.394;5.454;2023-05-07T15:13:28;8.02;;;7.82;;
26820;SDS011;37186;51.394;5.454;2023-05-07T15:16:29;9.27;;;9.00;;
26820;SDS011;37186;51.394;5.454;2023-05-07T15:19:29;9.70;;;9.40;;
26820;SDS011;37186;51.394;5.454;2023-05-07T15:22:30;10.32;;;10.02;;
26820;SDS011;37186;51.394;5.454;2023-05-07T15:25:31;12.10;;;11.70;;
26820;SDS011;37186;51.394;5.454;2023-05-07T15:28:33;12.23;;;11.85;;
26820;SDS011;37186;51.394;5.454;2023-05-07T15:31:34;13.43;;;13.02;;
26820;SDS011;37186;51.394;5.454;2023-05-07T15:34:34;17.48;;;16.92;;
26820;SDS011;37186;51.394;5.454;2023-05-07T15:37:35;14.73;;;14.25;;
26820;SDS011;37186;51.394;5.454;2023-05-07T15:40:35;16.60;;;16.10;;
26820;SDS011;37186;51.394;5.454;2023-05-07T15:43:45;13.55;;;13.15;;
26820;SDS011;37186;51.394;5.454;2023-05-07T15:46:48;10.55;;;10.25;;
26820;SDS011;37186;51.394;5.454;2023-05-07T15:49:48;10.38;;;10.07;;
26820;SDS011;37186;51.394;5.454;2023-05-07T15:52:49;10.93;;;10.63;;
26820;SDS011;37186;51.394;5.454;2023-05-07T15:55:50;9.80;;;9.50;;
26820;SDS011;37186;51.394;5.454;2023-05-07T15:58:50;10.20;;;9.90;;
26820;SDS011;37186;51.394;5.454;2023-05-07T16:01:52;10.27;;;9.98;;
26820;SDS011;37186;51.394;5.454;2023-05-07T16:04:53;11.85;;;11.50;;
26820;SDS011;37186;51.394;5.454;2023-05-07T16:07:53;9.13;;;8.82;;
26820;SDS011;37186;51.394;5.454;2023-05-07T16:10:56;9.25;;;8.95;;
26820;SDS011;37186;51.394;5.454;2023-05-07T16:13:56;10.60;;;10.30;;
26820;SDS011;37186;51.394;5.454;2023-05-07T16:16:59;10.02;;;9.73;;
26820;SDS011;37186;51.394;5.454;2023-05-07T16:20:01;9.07;;;8.77;;
26820;SDS011;37186;51.394;5.454;2023-05-07T16:23:05;8.18;;;7.97;;
26820;SDS011;37186;51.394;5.454;2023-05-07T16:26:05;8.52;;;8.32;;
26820;SDS011;37186;51.394;5.454;2023-05-07T16:29:06;7.68;;;7.47;;
26820;SDS011;37186;51.394;5.454;2023-05-07T16:32:07;7.93;;;7.72;;
26820;SDS011;37186;51.394;5.454;2023-05-07T16:35:07;8.20;;;8.00;;
26820;SDS011;37186;51.394;5.454;2023-05-07T16:38:08;8.43;;;8.23;;
26820;SDS011;37186;51.394;5.454;2023-05-07T16:41:10;9.20;;;8.90;;
26820;SDS011;37186;51.394;5.454;2023-05-07T16:44:10;9.65;;;9.35;;
26820;SDS011;37186;51.394;5.454;2023-05-07T16:47:11;12.93;;;12.52;;
26820;SDS011;37186;51.394;5.454;2023-05-07T16:50:11;11.00;;;10.70;;
26820;SDS011;37186;51.394;5.454;2023-05-07T16:53:12;11.38;;;11.07;;
26820;SDS011;37186;51.394;5.454;2023-05-07T16:56:12;12.75;;;12.35;;
26820;SDS011;37186;51.394;5.454;2023-05-07T16:59:13;12.48;;;12.07;;
26820;SDS011;37186;51.394;5.454;2023-05-07T17:02:13;13.13;;;12.73;;
26820;SDS011;37186;51.394;5.454;2023-05-07T17:05:14;12.73;;;12.32;;
26820;SDS011;37186;51.394;5.454;2023-05-07T17:08:14;12.02;;;11.65;;
26820;SDS011;37186;51.394;5.454;2023-05-07T17:11:15;13.13;;;12.73;;
26820;SDS011;37186;51.394;5.454;2023-05-07T17:14:16;14.73;;;14.27;;
26820;SDS011;37186;51.394;5.454;2023-05-07T17:17:16;13.88;;;13.48;;
26820;SDS011;37186;51.394;5.454;2023-05-07T17:20:17;13.48;;;13.07;;
26820;SDS011;37186;51.394;5.454;2023-05-07T17:23:17;13.30;;;12.90;;
26820;SDS011;37186;51.394;5.454;2023-05-07T17:26:18;13.15;;;12.75;;
26820;SDS011;37186;51.394;5.454;2023-05-07T17:29:18;13.60;;;13.20;;
26820;SDS011;37186;51.394;5.454;2023-05-07T17:32:19;13.35;;;12.95;;
26820;SDS011;37186;51.394;5.454;2023-05-07T17:35:19;13.80;;;13.40;;
26820;SDS011;37186;51.394;5.454;2023-05-07T17:38:20;14.32;;;13.90;;
26820;SDS011;37186;51.394;5.454;2023-05-07T17:41:20;13.60;;;13.20;;
26820;SDS011;37186;51.394;5.454;2023-05-07T17:44:21;15.65;;;15.15;;
26820;SDS011;37186;51.394;5.454;2023-05-07T17:47:22;15.13;;;14.63;;
26820;SDS011;37186;51.394;5.454;2023-05-07T17:50:22;16.25;;;15.75;;
26820;SDS011;37186;51.394;5.454;2023-05-07T17:53:23;17.00;;;16.48;;
26820;SDS011;37186;51.394;5.454;2023-05-07T17:56:26;17.38;;;16.83;;
26820;SDS011;37186;51.394;5.454;2023-05-07T17:59:27;16.92;;;16.40;;
26820;SDS011;37186;51.394;5.454;2023-05-07T18:02:27;17.25;;;16.73;;
26820;SDS011;37186;51.394;5.454;2023-05-07T18:05:28;18.83;;;18.23;;
26820;SDS011;37186;51.394;5.454;2023-05-07T18:08:29;19.73;;;19.10;;
26820;SDS011;37186;51.394;5.454;2023-05-07T18:11:29;18.10;;;17.50;;
26820;SDS011;37186;51.394;5.454;2023-05-07T18:14:32;19.27;;;18.67;;